createdAt,value
2019-05-06T00:01:08.402Z,2.57
2019-05-06T00:03:56.466Z,2.43
2019-05-06T00:06:44.469Z,2.70
2019-05-06T00:09:34.737Z,3.27
2019-05-06T00:12:23.957Z,2.70
2019-05-06T00:15:14.412Z,1.93
2019-05-06T00:18:04.246Z,2.23
2019-05-06T00:20:34.582Z,3.57
2019-05-06T00:23:41.523Z,2.87
2019-05-06T00:29:34.974Z,2.30
2019-05-06T00:32:24.290Z,2.63
2019-05-06T00:35:14.210Z,2.13
2019-05-06T00:38:04.378Z,2.83
2019-05-06T00:40:54.835Z,1.80
2019-05-06T00:43:23.826Z,3.47
2019-05-06T00:46:13.766Z,2.13
2019-05-06T00:49:03.692Z,3.53
2019-05-06T00:51:33.862Z,4.20
2019-05-06T00:57:16.618Z,2.87
2019-05-06T00:59:45.688Z,2.23
2019-05-06T01:02:14.573Z,4.63
2019-05-06T01:05:04.514Z,3.03
2019-05-06T01:07:54.708Z,4.53
2019-05-06T01:13:35.804Z,3.03
2019-05-06T01:16:24.952Z,2.77
2019-05-06T01:18:54.231Z,3.40
2019-05-06T01:21:34.794Z,4.27
2019-05-06T01:24:04.226Z,3.33
2019-05-06T01:26:53.696Z,3.50
2019-05-06T01:29:24.037Z,4.03
2019-05-06T01:32:13.973Z,4.50
2019-05-06T01:35:04.636Z,3.13
2019-05-06T01:38:11.337Z,3.53
2019-05-06T01:41:18.481Z,3.87
2019-05-06T01:43:47.397Z,3.47
2019-05-06T01:46:16.521Z,4.73
2019-05-06T01:49:04.622Z,3.60
2019-05-06T01:51:34.790Z,5.33
2019-05-06T01:54:04.191Z,6.13
2019-05-06T01:56:33.684Z,4.43
2019-05-06T01:59:21.828Z,3.40
2019-05-06T02:02:09.912Z,3.80
2019-05-06T02:04:57.949Z,5.63
2019-05-06T02:07:45.948Z,3.67
2019-05-06T02:10:14.833Z,3.83
2019-05-06T02:13:03.875Z,3.20
2019-05-06T02:15:34.648Z,3.60
2019-05-06T02:18:24.363Z,3.47
2019-05-06T02:26:54.224Z,4.43
2019-05-06T02:32:55.904Z,4.17
2019-05-06T02:35:28.926Z,6.07
2019-05-06T02:38:46.884Z,3.80
2019-05-06T02:41:25.789Z,4.27
2019-05-06T02:44:14.009Z,5.67
2019-05-06T02:47:23.084Z,6.47
2019-05-06T02:49:55.184Z,5.47
2019-05-06T02:52:44.099Z,5.70
2019-05-06T02:55:14.025Z,6.83
2019-05-06T02:57:43.958Z,5.63
2019-05-06T03:00:33.111Z,4.67
2019-05-06T03:03:23.316Z,5.73
2019-05-06T03:05:53.296Z,7.20
2019-05-06T03:08:43.445Z,4.57
2019-05-06T03:11:13.500Z,5.70
2019-05-06T03:14:03.248Z,6.00
2019-05-06T03:16:53.890Z,7.27
2019-05-06T03:22:48.156Z,6.07
2019-05-06T03:25:34.186Z,8.50
2019-05-06T03:28:04.290Z,8.17
2019-05-06T03:30:56.379Z,5.33
2019-05-06T03:34:03.513Z,5.27
2019-05-06T03:36:24.562Z,4.70
2019-05-06T03:38:44.118Z,7.93
2019-05-06T03:41:13.918Z,4.77
2019-05-06T03:43:43.809Z,4.43
2019-05-06T03:46:53.886Z,4.47
2019-05-06T03:49:24.096Z,4.77
2019-05-06T03:51:55.956Z,4.63
2019-05-06T03:54:45.327Z,4.33
2019-05-06T03:57:36.248Z,3.93
2019-05-06T04:03:18.136Z,4.83
2019-05-06T04:06:06.208Z,3.90
2019-05-06T04:08:54.390Z,3.67
2019-05-06T04:11:43.935Z,2.50
2019-05-06T04:14:33.807Z,3.73
2019-05-06T04:17:23.784Z,2.83
2019-05-06T04:20:12.786Z,2.80
2019-05-06T04:26:00.039Z,2.83
2019-05-06T04:28:48.166Z,2.90
2019-05-06T04:31:36.319Z,2.67
2019-05-06T04:34:25.919Z,3.10
2019-05-06T04:36:54.775Z,6.63
2019-05-06T04:39:43.454Z,4.10
2019-05-06T04:42:34.422Z,3.97
2019-05-06T04:45:23.661Z,3.70
2019-05-06T04:47:53.720Z,2.93
2019-05-06T04:50:24.174Z,3.13
2019-05-06T04:53:13.756Z,2.70
2019-05-06T04:55:44.137Z,3.53
2019-05-06T04:58:33.860Z,3.20
2019-05-06T05:01:23.102Z,5.63
2019-05-06T05:04:24.776Z,3.53
2019-05-06T05:07:03.379Z,3.27
2019-05-06T05:15:35.302Z,2.90
2019-05-06T05:21:38.109Z,3.63
2019-05-06T05:24:19.415Z,5.13
2019-05-06T05:26:48.297Z,3.53
2019-05-06T05:29:36.329Z,4.30
2019-05-06T05:32:26.876Z,3.90
2019-05-06T05:35:14.313Z,5.00
2019-05-06T05:38:03.025Z,4.73
2019-05-06T05:40:52.493Z,3.90
2019-05-06T05:44:02.412Z,3.73
2019-05-06T05:46:52.329Z,5.83
2019-05-06T05:49:59.594Z,3.47
2019-05-06T05:52:47.652Z,3.27
2019-05-06T05:55:35.933Z,2.77
2019-05-06T05:58:25.009Z,3.57
2019-05-06T06:00:54.545Z,4.60
2019-05-06T06:03:23.497Z,5.03
2019-05-06T06:06:12.614Z,4.17
2019-05-06T06:08:43.159Z,3.93
2019-05-06T06:14:53.427Z,3.80
2019-05-06T06:17:59.017Z,4.97
2019-05-06T06:21:17.553Z,4.93
2019-05-06T06:27:08.512Z,6.13
2019-05-06T06:29:37.345Z,5.43
2019-05-06T06:32:27.353Z,7.47
2019-05-06T06:35:34.529Z,6.17
2019-05-06T06:41:17.745Z,8.77
2019-05-06T06:47:16.564Z,9.43
2019-05-06T06:50:04.769Z,7.27
2019-05-06T06:56:19.112Z,7.00
2019-05-06T07:02:17.203Z,6.90
2019-05-06T07:07:47.111Z,7.10
2019-05-06T07:10:32.810Z,7.37
2019-05-06T07:13:02.856Z,8.40
2019-05-06T07:15:33.677Z,7.60
2019-05-06T07:18:02.710Z,9.63
2019-05-06T07:20:35.857Z,6.40
2019-05-06T07:23:23.291Z,6.30
2019-05-06T07:25:53.802Z,9.37
2019-05-06T07:31:49.305Z,9.63
2019-05-06T07:34:37.461Z,8.27
2019-05-06T07:37:25.473Z,8.30
2019-05-06T07:40:13.569Z,6.67
2019-05-06T07:43:22.042Z,8.30
2019-05-06T07:45:53.154Z,7.30
2019-05-06T07:48:42.866Z,9.43
2019-05-06T07:51:12.824Z,5.30
2019-05-06T07:54:02.852Z,7.80
2019-05-06T07:56:52.630Z,7.17
2019-05-06T07:59:42.403Z,7.17
2019-05-06T08:02:32.086Z,7.37
2019-05-06T08:05:21.991Z,6.77
2019-05-06T08:08:09.764Z,5.37
2019-05-06T08:10:58.068Z,6.43
2019-05-06T08:13:27.076Z,7.00
2019-05-06T08:15:56.191Z,6.40
2019-05-06T08:18:25.020Z,6.50
2019-05-06T08:24:02.842Z,4.97
2019-05-06T08:26:52.191Z,8.07
2019-05-06T08:29:42.435Z,5.53
2019-05-06T08:32:32.161Z,5.23
2019-05-06T08:38:08.281Z,5.80
2019-05-06T08:40:56.366Z,6.97
2019-05-06T08:43:25.132Z,7.57
2019-05-06T08:46:13.196Z,6.40
2019-05-06T08:49:02.845Z,6.50
2019-05-06T08:54:55.590Z,6.63
2019-05-06T08:57:44.301Z,4.67
2019-05-06T09:03:22.409Z,5.90
2019-05-06T09:06:26.059Z,5.80
2019-05-06T09:09:02.369Z,8.70
2019-05-06T09:11:50.305Z,4.67
2019-05-06T09:14:38.309Z,5.27
2019-05-06T09:17:26.395Z,4.73
2019-05-06T09:20:14.492Z,5.17
2019-05-06T09:22:55.075Z,5.80
2019-05-06T09:25:24.031Z,5.23
2019-05-06T09:28:02.975Z,5.70
2019-05-06T09:30:48.273Z,5.40
2019-05-06T09:33:22.350Z,7.10
2019-05-06T09:35:52.744Z,8.47
2019-05-06T09:38:22.813Z,6.37
2019-05-06T09:40:52.518Z,7.70
2019-05-06T09:43:22.276Z,5.00
2019-05-06T09:45:52.974Z,6.60
2019-05-06T09:48:44.106Z,5.57
2019-05-06T09:51:13.199Z,4.43
2019-05-06T09:54:01.546Z,3.37
2019-05-06T09:56:34.921Z,6.00
2019-05-06T09:59:22.976Z,4.70
2019-05-06T10:02:12.425Z,3.53
2019-05-06T10:05:03.345Z,5.60
2019-05-06T10:07:31.417Z,7.27
2019-05-06T10:10:19.635Z,6.03
2019-05-06T10:13:07.705Z,5.67
2019-05-06T10:15:57.609Z,5.47
2019-05-06T10:18:45.572Z,7.57
2019-05-06T10:21:26.610Z,6.10
2019-05-06T10:24:07.015Z,7.53
2019-05-06T10:26:52.473Z,7.27
2019-05-06T10:29:52.336Z,8.30
2019-05-06T10:32:42.498Z,4.40
2019-05-06T10:35:32.334Z,4.37
2019-05-06T10:38:42.360Z,5.37
2019-05-06T10:41:32.787Z,4.60
2019-05-06T10:47:38.286Z,4.17
2019-05-06T10:53:23.579Z,4.00
2019-05-06T10:56:32.282Z,4.43
2019-05-06T10:59:22.157Z,4.47
2019-05-06T11:02:29.427Z,2.77
2019-05-06T11:05:17.887Z,2.97
2019-05-06T11:08:05.906Z,4.93
2019-05-06T11:10:40.847Z,3.27
2019-05-06T11:13:24.775Z,4.60
2019-05-06T11:16:13.055Z,3.00
2019-05-06T11:18:42.645Z,4.70
2019-05-06T11:21:12.792Z,4.47
2019-05-06T11:24:01.436Z,4.27
2019-05-06T11:26:49.456Z,3.70
2019-05-06T11:32:54.575Z,3.13
2019-05-06T11:36:00.795Z,3.40
2019-05-06T11:38:48.780Z,3.77
2019-05-06T11:44:12.710Z,6.43
2019-05-06T11:46:42.968Z,3.70
2019-05-06T11:49:32.641Z,7.10
2019-05-06T11:52:02.546Z,4.00
2019-05-06T11:54:52.861Z,5.77
2019-05-06T12:00:52.645Z,5.07
2019-05-06T12:06:28.972Z,3.97
2019-05-06T12:09:17.425Z,5.23
2019-05-06T12:12:05.453Z,5.63
2019-05-06T12:14:34.357Z,4.67
2019-05-06T12:17:22.530Z,5.93
2019-05-06T12:20:12.917Z,4.93
2019-05-06T12:22:42.365Z,5.97
2019-05-06T12:25:30.985Z,4.57
2019-05-06T12:28:18.965Z,7.77
2019-05-06T12:31:06.997Z,4.20
2019-05-06T12:33:55.061Z,3.83
2019-05-06T12:36:43.185Z,4.13
2019-05-06T12:45:43.720Z,3.97
2019-05-06T12:48:35.381Z,4.53
2019-05-06T12:51:23.402Z,3.80
2019-05-06T12:54:12.904Z,3.83
2019-05-06T12:56:42.547Z,5.50
2019-05-06T12:59:31.928Z,3.33
2019-05-06T13:02:19.947Z,4.87
2019-05-06T13:04:55.871Z,3.67
2019-05-06T13:10:38.102Z,3.50
2019-05-06T13:13:07.199Z,3.37
2019-05-06T13:15:36.303Z,3.60
2019-05-06T13:18:24.341Z,4.80
2019-05-06T13:21:06.607Z,4.97
2019-05-06T13:23:54.825Z,4.00
2019-05-06T13:26:43.218Z,4.77
2019-05-06T13:35:17.033Z,4.20
2019-05-06T13:38:05.331Z,4.17
2019-05-06T13:40:57.051Z,6.23
2019-05-06T13:44:02.676Z,4.50
2019-05-06T13:55:42.829Z,3.93
2019-05-06T13:58:13.057Z,6.30
2019-05-06T14:00:42.592Z,3.67
2019-05-06T14:03:32.176Z,3.53
2019-05-06T14:06:21.462Z,3.30
2019-05-06T14:09:27.197Z,2.87
2019-05-06T14:11:41.996Z,4.80
2019-05-06T14:14:12.594Z,3.23
2019-05-06T14:16:42.675Z,4.50
2019-05-06T14:19:33.124Z,3.93
2019-05-06T14:22:13.104Z,3.73
2019-05-06T14:31:25.362Z,5.67
2019-05-06T14:33:52.251Z,3.50
2019-05-06T14:36:22.917Z,3.23
2019-05-06T14:39:48.632Z,4.13
2019-05-06T14:42:22.155Z,3.70
2019-05-06T14:44:51.205Z,3.07
2019-05-06T14:47:42.310Z,3.40
2019-05-06T14:50:36.867Z,3.00
2019-05-06T14:53:19.900Z,5.23
2019-05-06T14:59:16.778Z,3.93
2019-05-06T15:01:45.904Z,4.17
2019-05-06T15:04:35.431Z,3.30
2019-05-06T15:07:04.352Z,5.17
2019-05-06T15:10:07.672Z,4.83
2019-05-06T15:12:23.448Z,2.90
2019-05-06T15:15:12.958Z,5.07
2019-05-06T15:18:02.899Z,3.70
2019-05-06T15:20:34.114Z,3.13
2019-05-06T15:23:04.296Z,3.47
2019-05-06T15:25:52.535Z,5.50
2019-05-06T15:28:42.566Z,4.13
2019-05-06T15:35:04.318Z,3.00
2019-05-06T15:38:12.750Z,3.43
2019-05-06T15:41:00.880Z,2.70
2019-05-06T15:43:49.000Z,3.43
2019-05-06T15:46:17.862Z,3.87
2019-05-06T15:49:05.903Z,3.57
2019-05-06T15:51:53.893Z,5.80
2019-05-06T15:54:43.076Z,4.67
2019-05-06T15:57:32.758Z,3.27
2019-05-06T16:00:22.608Z,2.67
2019-05-06T16:02:53.251Z,3.30
2019-05-06T16:05:43.744Z,4.50
2019-05-06T16:08:32.196Z,2.57
2019-05-06T16:11:22.250Z,4.83
2019-05-06T16:14:12.310Z,3.13
2019-05-06T16:16:59.809Z,5.03
2019-05-06T16:19:47.827Z,3.87
2019-05-06T16:22:28.410Z,2.30
2019-05-06T16:25:13.220Z,2.87
2019-05-06T16:30:53.510Z,3.10
2019-05-06T16:33:42.939Z,4.57
2019-05-06T16:36:13.166Z,3.60
2019-05-06T16:39:03.165Z,3.87
2019-05-06T16:41:31.665Z,2.80
2019-05-06T16:44:19.942Z,3.17
2019-05-06T16:47:07.952Z,4.63
2019-05-06T16:49:55.948Z,5.03
2019-05-06T16:52:45.414Z,3.40
2019-05-06T16:55:36.833Z,3.10
2019-05-06T17:01:18.636Z,2.73
2019-05-06T17:04:25.767Z,4.20
2019-05-06T17:07:03.104Z,3.33
2019-05-06T17:09:52.649Z,2.97
2019-05-06T17:12:22.514Z,2.50
2019-05-06T17:14:52.921Z,3.63
2019-05-06T17:17:46.674Z,2.47
2019-05-06T17:20:51.951Z,2.47
2019-05-06T17:26:15.562Z,2.50
2019-05-06T17:29:02.713Z,2.60
2019-05-06T17:32:03.489Z,3.20
2019-05-06T17:34:48.114Z,3.53
2019-05-06T17:37:48.377Z,2.90
2019-05-06T17:40:29.372Z,3.30
2019-05-06T17:42:58.472Z,3.77
2019-05-06T17:46:06.814Z,2.70
2019-05-06T17:49:14.018Z,2.57
2019-05-06T17:52:03.002Z,3.17
2019-05-06T17:54:52.743Z,3.03
2019-05-06T17:57:42.252Z,2.83
2019-05-06T18:00:32.366Z,2.47
2019-05-06T18:03:21.481Z,3.07
2019-05-06T18:05:52.524Z,4.07
2019-05-06T18:08:22.497Z,4.43
2019-05-06T18:10:52.130Z,2.30
2019-05-06T18:13:41.350Z,3.10
2019-05-06T18:16:29.453Z,4.77
2019-05-06T18:19:17.513Z,3.83
2019-05-06T18:22:05.795Z,2.70
2019-05-06T18:34:06.369Z,3.73
2019-05-06T18:41:11.925Z,2.40
2019-05-06T20:41:37.619Z,4.10
2019-05-06T20:44:18.211Z,3.47
2019-05-06T21:40:52.376Z,4.60
2019-05-06T21:43:22.710Z,4.80
2019-05-06T21:45:53.980Z,4.07
2019-05-06T21:48:22.682Z,4.40
2019-05-06T21:50:52.237Z,4.33
2019-05-06T21:53:41.750Z,3.17
2019-05-06T21:56:31.932Z,4.00
2019-05-06T21:59:22.812Z,3.70
2019-05-06T22:05:22.429Z,3.93
2019-05-06T22:08:23.751Z,4.30
2019-05-06T22:11:00.796Z,6.00
2019-05-06T22:13:58.901Z,4.00
2019-05-06T22:16:39.790Z,5.10
2019-05-06T22:19:28.161Z,4.73
2019-05-06T22:22:12.044Z,4.17
2019-05-06T22:24:57.700Z,4.17
2019-05-06T22:27:35.412Z,8.47
2019-05-06T22:30:16.064Z,3.97
2019-05-06T22:32:45.815Z,4.33
2019-05-06T22:35:34.073Z,5.63
2019-05-06T22:38:22.124Z,4.70
2019-05-06T22:41:10.295Z,3.70
2019-05-06T22:44:12.127Z,6.13
2019-05-06T22:49:43.473Z,4.00
2019-05-06T22:52:32.555Z,6.50
2019-05-06T22:55:22.083Z,4.30
2019-05-06T22:57:52.955Z,4.17
2019-05-06T23:06:14.445Z,5.87
2019-05-06T23:09:02.727Z,5.03
2019-05-06T23:11:50.961Z,4.30
2019-05-06T23:14:39.046Z,4.43
2019-05-06T23:17:08.162Z,5.03
2019-05-06T23:19:56.358Z,4.10
2019-05-06T23:22:37.546Z,4.47
2019-05-06T23:25:06.812Z,4.27
2019-05-06T23:27:35.783Z,4.53
2019-05-06T23:30:24.103Z,5.33
2019-05-06T23:33:14.029Z,4.10
2019-05-06T23:36:03.649Z,4.93
2019-05-06T23:39:12.658Z,4.13
2019-05-06T23:42:19.914Z,4.40
2019-05-06T23:45:27.450Z,3.93
2019-05-06T23:48:35.423Z,3.92
2019-05-06T23:51:42.821Z,4.70
2019-05-06T23:54:52.096Z,4.00
2019-05-06T23:57:39.231Z,4.50
